Wetterstation Vordersexau
Wetterdaten: Mai 2013
Datum Temp. A. Feuchte A. Luftdruck Regen Wind Richtung Taupunkt Windchill Windben
01.05.2013 13,4 C 74 % 1016,1 hPa 1,0 l/m 2,3 km/h N 8,7 C 13,0 C 1,3 km/h
02.05.2013 14,5 C 76 % 1015,0 hPa 5,7 l/m 3,3 km/h NO 10,3 C 14,1 C 1,8 km/h
03.05.2013 12,2 C 79 % 1012,8 hPa 1,6 l/m 1,6 km/h SO 8,5 C 11,9 C 0,9 km/h
04.05.2013 12,9 C 74 % 1016,7 hPa 1,0 l/m 1,9 km/h S-SW 8,3 C 12,6 C 1,0 km/h
05.05.2013 16,0 C 64 % 1018,8 hPa 0,0 l/m 1,7 km/h S 8,6 C 15,8 C 1,0 km/h
06.05.2013 15,4 C 73 % 1015,1 hPa 2,6 l/m 3,7 km/h S-SW 10,2 C 14,9 C 2,0 km/h
07.05.2013 17,0 C 64 % 1013,3 hPa 0,5 l/m 3,9 km/h S-SW 9,7 C 16,5 C 2,2 km/h
08.05.2013 18,2 C 61 % 1011,7 hPa 0,5 l/m 2,6 km/h N 9,4 C 18,1 C 1,4 km/h
09.05.2013 17,2 C 70 % 1012,9 hPa 1,6 l/m 7,9 km/h W-NW 11,6 C 15,9 C 4,4 km/h
10.05.2013 14,4 C 72 % 1014,7 hPa 23,3 l/m 1,4 km/h SO 9,1 C 14,2 C 0,8 km/h
11.05.2013 13,4 C 74 % 1015,3 hPa 4,1 l/m 2,2 km/h S-SO 8,6 C 13,1 C 1,2 km/h
12.05.2013 11,5 C 75 % 1016,1 hPa 6,2 l/m 6,9 km/h N-NO 7,0 C 9,8 C 3,9 km/h
13.05.2013 11,3 C 74 % 1017,3 hPa 0,0 l/m 11,1 km/h NW 6,6 C 8,6 C 6,2 km/h
14.05.2013 17,1 C 63 % 1009,4 hPa 0,0 l/m 8,0 km/h W 9,5 C 15,7 C 4,4 km/h
15.05.2013 15,0 C 74 % 1000,9 hPa 0,5 l/m 5,1 km/h N-NW 10,3 C 14,3 C 2,8 km/h
16.05.2013 12,6 C 78 % 996,0 hPa 1,0 l/m 2,7 km/h N 8,8 C 12,1 C 1,5 km/h
17.05.2013 11,2 C 75 % 999,6 hPa 9,3 l/m 1,1 km/h O-SO 6,9 C 11,2 C 0,6 km/h
18.05.2013 16,7 C 60 % 1004,5 hPa 0,0 l/m 2,3 km/h SO 8,0 C 16,4 C 1,3 km/h
19.05.2013 12,0 C 77 % 1007,1 hPa 6,2 l/m 6,4 km/h NW 8,0 C 10,3 C 3,6 km/h
20.05.2013 10,8 C 78 % 1011,2 hPa 2,1 l/m 14,6 km/h W 7,1 C 6,7 C 8,1 km/h
21.05.2013 11,4 C 79 % 1010,3 hPa 6,2 l/m 10,6 km/h W 7,7 C 8,9 C 5,9 km/h
22.05.2013 10,2 C 80 % 1010,6 hPa 8,3 l/m 1,0 km/h SO 6,9 C 10,2 C 0,6 km/h
23.05.2013 8,8 C 75 % 1008,5 hPa 6,2 l/m 4,9 km/h S-SW 4,5 C 7,5 C 2,7 km/h
24.05.2013 8,9 C 68 % 1009,4 hPa 0,0 l/m 1,8 km/h SO 2,9 C 8,7 C 1,0 km/h
25.05.2013 11,4 C 64 % 1010,5 hPa 0,0 l/m 2,1 km/h O-SO 4,1 C 11,0 C 1,2 km/h
26.05.2013 8,0 C 80 % 1013,5 hPa 6,2 l/m 12,0 km/h N-NW 4,8 C 4,4 C 6,7 km/h
27.05.2013 14,8 C 62 % 1010,4 hPa 1,6 l/m 3,1 km/h W 6,7 C 14,5 C 1,7 km/h
28.05.2013 15,5 C 66 % 1002,6 hPa 4,7 l/m 4,0 km/h SO 8,2 C 14,7 C 2,3 km/h
29.05.2013 9,4 C 80 % 1002,8 hPa 14,0 l/m 5,9 km/h W-NW 6,2 C 7,8 C 3,3 km/h
30.05.2013 13,1 C 65 % 1005,4 hPa 0,0 l/m 2,0 km/h O-NO 6,0 C 12,9 C 1,1 km/h
31.05.2013 10,3 C 74 % 1005,4 hPa 32,1 l/m 2,8 km/h W 5,8 C 9,8 C 1,5 km/h
Min-Datum 25.05.13 08.05.13 16.05.13 24 Tage 01.05.13 - 25.05.13 26.05.13 01.05.13
Min-Zeit 03:19 17:19 10:19 - 00:19 - 03:19 08:19 00:19
Minimum 2,9 C 30 % 994,3 hPa - 0,0 km/h - 0,5 C -2,5 C 0,0 km/h
Max-Datum 18.05.13 01.05.13 05.05.13 31.05.13 13.05.13 - 02.05.13 18.05.13 13.05.13
Max-Zeit 16:19 09:19 00:19 12:19 14:19 - 16:19 16:19 14:19
Maximum 29,3 C 84 % 1020,6 hPa 32,1 l/m 41,5 km/h
NW
- 15,7 C 29,3 C 23,0 km/h
NW
Durchschnitt 13,0 C 72 % 1010,1 hPa #146,6 l/m 4,5 km/h N-NW 7,7 C 12,1 C 2,5 km/h

Durchschnitt Minimum Temp.7,9 C
Durchschnitt Maximum Temp.20,9 C
www.sexauwetter.de